METAR Data
IDs: Format: Raw Decoded Include TAF

Data at: 1143 UTC 16 Oct 2018

KBWI 161054Z 32008G17KT 10SM SCT070 BKN110 BKN250 12/05 A3016 RMK AO2 SLP212 T01170050
KBWI 160954Z 30006KT 10SM FEW070 BKN130 OVC250 12/06 A3015 RMK AO2 SLP208 T01220056
KBWI 160854Z 30009KT 10SM SCT070 BKN130 13/06 A3013 RMK AO2 SLP201 T01330061 51023
KBWI 160754Z 31010KT 10SM SCT070 BKN130 14/07 A3010 RMK AO2 SLP193 T01440067
KBWI 160654Z 33007KT 10SM BKN070 BKN120 16/09 A3009 RMK AO2 SLP188 T01560094
KBWI 160554Z 31013G21KT 10SM FEW065 SCT090 BKN120 BKN150 17/10 A3006 RMK AO2 SLP178 60000 T01670100 10217 20167 51035
KBWI 160454Z 30014G22KT 10SM SCT041 BKN065 BKN090 BKN150 18/13 A3004 RMK AO2 PRESRR SLP172 T01780128 402170128
KBWI 160354Z 30013KT 10SM SCT032 BKN065 BKN130 19/15 A3000 RMK AO2 PK WND 31031/0316 WSHFT 0311 RAB14E27 SLP160 P0000 T01890150
KBWI 160331Z 29015G20KT 10SM FEW022 BKN055 BKN070 BKN130 19/16 A2998 RMK AO2 PK WND 31031/0316 WSHFT 0311 RAB14E27 P0000 T01940161
KBWI 160254Z 23008KT 10SM FEW070 BKN130 21/19 A2996 RMK AO2 SLP143 T02110189 53001
KBWI 160154Z 22010KT 10SM BKN065 BKN120 22/19 A2995 RMK AO2 SLP141 T02170189
KBWI 160054Z 23009G17KT 10SM FEW070 BKN120 BKN250 21/18 A2994 RMK AO2 SLP138 T02110183
KBWI 152354Z 24006KT 10SM FEW100 BKN140 BKN180 19/18 A2995 RMK AO2 SLP143 60003 T01940183 10194 20183 55004
KBWI 152254Z 26005KT 10SM FEW110 BKN140 BKN180 19/18 A2994 RMK AO2 SLP139 T01890183
KBWI 152154Z 20004KT 10SM FEW070 BKN095 BKN120 OVC180 19/18 A2995 RMK AO2 RAE36 SLP140 P0001 T01940183
KBWI 152054Z 22003KT 9SM -RA FEW065 BKN085 BKN110 OVC250 19/18 A2997 RMK AO2 SLP147 P0000 60002 T01890183 56020
KBWI 151954Z 21006KT 10SM -RA FEW023 SCT060 BKN110 OVC250 19/18 A2998 RMK AO2 RAB14 SLP153 P0000 T01940178
KBWI 151854Z 21006KT 10SM FEW023 SCT060 BKN110 BKN250 18/17 A3000 RMK AO2 RAE41 SLP159 P0002 T01830172
KBWI 151754Z 23005KT 6SM -RA BR SCT026 SCT060 OVC110 19/17 A3003 RMK AO2 RAB06 SLP167 P0001 60006 T01890172 10200 20144 56017
KBWI 151712Z 24004KT 10SM -RA FEW010 SCT023 BKN110 19/17 A3003 RMK AO2 RAB06 P0000 T01890167 $
KBWI 151654Z 23005KT 10SM FEW010 BKN023 BKN100 19/17 A3003 RMK AO2 SLP169 T01890167 $
KBWI 151643Z 23007KT 10SM SCT010 OVC023 18/17 A3004 RMK AO2 T01830167
KBWI 151608Z 22006KT 10SM BKN010 OVC023 18/16 A3005 RMK AO2 T01780161
KBWI 151607Z 22007KT 10SM OVC010 18/16 A3005 RMK AO2 T01780161
KBWI 151554Z 22006KT 10SM BKN009 BKN013 17/16 A3006 RMK AO2 SLP180 T01720161
KBWI 151454Z 21008KT 8SM BKN008 OVC013 17/16 A3008 RMK AO2 RAE11 SLP184 P0000 60005 T01670156 58010
KBWI 151354Z 20007KT 6SM -RA BR BKN007 OVC012 16/15 A3009 RMK AO2 SLP190 P0004 T01560150
KBWI 151323Z 23006KT 4SM -RA BR BKN007 BKN012 OVC023 15/15 A3010 RMK AO2 P0004 T01500150 $
KBWI 151303Z 22007KT 2 1/2SM RA BR BKN008 BKN023 OVC043 15/14 A3011 RMK AO2 P0002 T01500144 $
KBWI 151254Z 22006KT 4SM -RA BR BKN005 OVC012 15/14 A3011 RMK AO2 SLP195 P0001 T01500144 $
KBWI 151154Z 21007KT 4SM -RA BR BKN006 OVC011 14/14 A3011 RMK AO2 SLP194 P0004 60006 70010 T01440139 10144 20133 58005 $
KBWI 151135Z 20005KT 3SM -RA BR BKN006 OVC011 14/14 A3010 RMK AO2 P0003 T01440139 $
KBWI 151126Z 20006KT 2 1/2SM RA BR OVC006 14/14 A3010 RMK AO2 P0002 T01390139 $
KBWI 151054Z 19003KT 4SM -RA BR OVC006 14/13 A3011 RMK AO2 RAB0957 SLP196 P0002 T01390133 $
KBWI 151042Z VRB03KT 5SM -RA BR BKN007 OVC014 14/13 A3012 RMK AO2 RAB0957 P0001 T01390133 $
KBWI 151024Z 00000KT 5SM -RA BR BKN014 OVC028 14/13 A3012 RMK AO2 RAB0957 P0000 T01390133 $
KBWI 150954Z 00000KT 10SM BKN029 OVC036 14/13 A3012 RMK AO2 SLP199 T01390133 $
KBWI 150912Z 00000KT 10SM BKN029 BKN036 OVC060 13/13 A3012 RMK AO2 T01330133 $
KBWI 150854Z 00000KT 10SM OVC031 13/13 A3012 RMK AO2 SLP199 T01330128 56017
KBWI 150754Z 13003KT 10SM OVC033 13/13 A3013 RMK AO2 SLP202 T01330128
KBWI 150654Z 00000KT 10SM OVC035 13/13 A3016 RMK AO2 SLP212 T01330128
KBWI 150554Z 00000KT 10SM BKN034 OVC060 13/13 A3017 RMK AO2 RAB10E29 SLP216 P0001 60001 T01330128 10133 20128 58008
KBWI 150454Z 00000KT 10SM SCT026 BKN035 OVC060 13/12 A3019 RMK AO2 RAB15E53 SLP221 P0000 T01330122 401330067
KBWI 150452Z 00000KT 10SM -RA SCT026 BKN035 OVC060 13/12 A3019 RMK AO2 RAB15 P0000
KBWI 150354Z 00000KT 10SM OVC029 13/13 A3020 RMK AO2 SLP225 T01330128
KBWI 150347Z 00000KT 10SM OVC029 13/13 A3020 RMK AO2 T01330128
KBWI 150254Z 00000KT 10SM OVC033 13/12 A3020 RMK AO2 SLP227 T01330117 54000
KBWI 150154Z 00000KT 10SM BKN039 OVC065 13/12 A3020 RMK AO2 SLP227 T01330122
KBWI 150054Z 00000KT 10SM BKN043 OVC075 13/12 A3020 RMK AO2 SLP226 T01330117
KBWI 142354Z 00000KT 10SM BKN050 OVC070 13/12 A3020 RMK AO2 SLP228 T01280117 10133 20117 55000